This is the latest recevied weather packets stored in our database for station/object DC4XK-10. If no packets are shown the sender has not sent any weather packets the latest 10 day(s).
| Time | Temp. | Humidity | Pressure | Rain* | Wind** | Luminosity | Snow |
|---|---|---|---|---|---|---|---|
| 1777958930 | 8.89° C | 94% | 1010.2 hPa | 0 mm | 0 m/s | - | - |
| 1777958331 | 8.89° C | 95% | 1010.1 hPa | 0 mm | 0 m/s | - | - |
| 1777957734 | 8.89° C | 95% | 1010.2 hPa | 0 mm | 0 m/s | - | - |
| 1777957131 | 8.89° C | 95% | 1010.2 hPa | 0 mm | 0 m/s | - | - |
| 1777956530 | 8.33° C | 95% | 1010.2 hPa | 0 mm | 0.89 m/s, 2° | - | - |
| 1777955933 | 8.33° C | 95% | 1010 hPa | 0 mm | 0.45 m/s, 30° | - | - |
| 1777955331 | 8.33° C | 96% | 1010 hPa | 0 mm | 0.45 m/s, 257° | - | - |
| 1777954730 | 8.33° C | 96% | 1010.2 hPa | 0 mm | 0 m/s | - | - |
| 1777954131 | 8.33° C | 96% | 1010.2 hPa | 0 mm | 0 m/s | - | - |
| 1777953531 | 8.33° C | 95% | 1010 hPa | 0 mm | 0 m/s | - | - |
| 1777943331 | 9.44° C | 87% | 1010.6 hPa | 0 mm | 0 m/s | - | - |
| 1777942731 | 9.44° C | 87% | 1010.6 hPa | 0 mm | 0.89 m/s, 318° | - | - |
| 1777940931 | 9.44° C | 87% | 1010.9 hPa | 0 mm | 0.89 m/s, 325° | - | - |
| 1777940330 | 9.44° C | 86% | 1011 hPa | 0 mm | 0 m/s | - | - |
| 1777939730 | 9.44° C | 86% | 1011 hPa | 0 mm | 0.89 m/s, 309° | - | - |
| 1777939131 | 9.44° C | 86% | 1010.9 hPa | 0 mm | 0 m/s | - | - |
| 1777938531 | 9.44° C | 86% | 1011.1 hPa | 0 mm | 0 m/s | - | - |
| 1777934330 | 10° C | 89% | 1011.1 hPa | 0 mm | 0.89 m/s, 353° | - | - |
| 1777932531 | 10.56° C | 88% | 1011.4 hPa | 0 mm | 0 m/s | - | - |
| 1777930132 | 11.11° C | 85% | 1011.4 hPa | 0 mm | 1.34 m/s, 266° | - | - |
| 1777929531 | 11.11° C | 85% | 1011.5 hPa | 0 mm | 0 m/s | - | - |
| 1777928931 | 11.11° C | 84% | 1011.5 hPa | 0 mm | 0.89 m/s, 98° | - | - |
| 1777924731 | 12.22° C | 82% | 1011.1 hPa | 0 mm | 0.89 m/s, 296° | - | - |
| 1777924131 | 12.78° C | 82% | 1011.2 hPa | 0 mm | 0 m/s | - | - |
| 1777923532 | 12.78° C | 82% | 1011.3 hPa | 0 mm | 0 m/s | - | - |
* Rain latest hour (hover to see other rain measurements)
** Current wind speed in m/s (hover to see current wind gust speed)